Latest Coastal Weather Observations for Devonport Airport

IDV60701

Issued at 4:11 am EDT Wednesday 18 January 2017 (issued every 10 minutes, with the page automatically refreshed every 10 minutes)

About coastal observations | Map of coastal stations | Coastal observations for VIC | Marine services | Other Formats
Station Details ID: 091126 Name: DEVONPORT AIRPORT Lat: -41.17 Lon: 146.43 Height: 8.0 m
Data from the previous 72 hours. | See also: Recent months at Devonport Airport
Date/Time
EDT
Temp
°C
Wind Pressure Rain since
9am
mm
Weather Cloud Vis
km
Sea
Height
m
Swell
Dir  Spd
kts
Gust
kts
hPa Trend Height
m
Period
s
Dir
18/04:00am 12.9 W 12 16 1004.9 - 0.4 - - - - - - -
18/03:30am 13.6 WSW 13 16 1004.8 - 0.4 - - - - - - -
18/03:00am 14.5 WSW 15 21 1004.6 - 0.4 - - - - - - -
18/02:30am 15.4 W 14 20 1004.4 - 0.4 - - - - - - -
18/02:00am 15.6 WNW 12 15 1004.8 - 0.4 - - - - - - -
18/01:30am 15.8 WNW 15 19 1004.5 - 0.4 - - - - - - -
18/01:00am 15.9 WNW 16 20 1004.6 - 0.4 - - 10 - - - -
18/12:30am 15.9 NW 17 21 1004.6 - 0.4 - - 10 - - - -
18/12:00am 16.0 WNW 16 20 1004.3 - 0.4 - Cloudy 10 - - - -
 
Date/Time
EDT
Temp
°C
Wind Pressure Rain since
9am
mm
Weather Cloud Vis
km
Sea
Height
m
Swell
Dir  Spd
kts
Gust
kts
hPa Trend Height
m
Period
s
Dir
17/11:30pm 16.0 NW 15 19 1004.6 - 0.4 - Partly cloudy 10 - - - -
17/11:00pm 16.1 WNW 16 20 1004.5 - 0.4 - Partly cloudy 10 - - - -
17/10:30pm 16.4 WNW 20 25 1005.6 - 0.4 - Cloudy 10 - - - -
17/10:00pm 16.6 NW 18 23 1005.0 - 0.2 - Partly cloudy 10 - - - -
17/09:30pm 16.8 NW 16 19 1004.9 - 0.2 - Cloudy 10 - - - -
17/09:00pm 17.0 NW 16 21 1004.1 - 0.2 Rain Mostly cloudy 10 - - - -
17/08:30pm 17.0 WNW 11 14 1005.1 - 0.0 - Cloudy 10 - - - -
17/08:00pm 17.2 WNW 11 15 1004.5 - 0.0 - Cloudy 10 - - - -
17/07:30pm 17.3 WNW 12 14 1004.2 - 0.0 - Cloudy 10 - - - -
17/07:00pm 17.5 WNW 10 13 1003.9 - 0.0 - Cloudy 10 - - - -
17/06:30pm 17.3 NW 8 11 1003.9 - 0.0 - Cloudy 10 - - - -
17/06:00pm 17.7 NW 7 10 1004.0 - 0.0 Rain Cloudy 10 - - - -
17/05:30pm 17.6 NW 5 7 1004.7 - 0.0 - - 10 - - - -
17/05:00pm 18.0 WNW 7 9 1004.6 - 0.0 - - 10 - - - -
17/04:30pm 18.0 WNW 6 9 1004.7 - 0.0 - - 10 - - - -
17/04:00pm 18.3 NW 6 8 1004.8 - 0.0 - - - - - - -
17/03:30pm 18.5 NNW 7 10 1004.8 - 0.0 - - - - - - -
17/03:00pm 19.4 NNW 10 13 1005.1 - 0.0 - - - - - - -
17/02:30pm 19.5 N 8 11 1005.3 - 0.0 - - - - - - -
17/02:00pm 18.7 N 11 13 1005.6 - 0.0 - - - - - - -
17/01:30pm 19.1 N 11 14 1006.0 - 0.0 - - - - - - -
17/01:00pm 18.4 N 13 15 1006.1 - 0.0 - - - - - - -
17/12:30pm 17.8 N 10 12 1006.2 - 0.0 - - - - - - -
17/12:00pm 17.9 N 10 11 1006.0 - 0.0 - - - - - - -
17/11:30am 17.6 N 10 13 1006.5 - 0.0 - - - - - - -
17/11:00am 17.6 N 10 12 1007.1 - 0.0 - - - - - - -
17/10:30am 17.9 NNE 9 11 1007.2 - 0.0 - - - - - - -
17/10:00am 17.3 N 6 8 1007.3 - 0.0 - - 10 - - - -
17/09:30am 17.5 N 6 8 1007.6 - 0.0 - - 10 - - - -
17/09:00am 16.9 N 3 5 1007.5 - 0.0 - - - - - - -
17/08:30am 16.2 SSE 4 5 1007.4 - 0.0 - - - - - - -
17/08:00am 15.5 SSE 4 5 1007.8 - 0.0 - - - - - - -
17/07:30am 14.6 S 4 5 1007.9 - 0.0 - - - - - - -
17/07:00am 14.2 S 4 5 1007.9 - 0.0 - - - - - - -
17/06:30am 14.1 SSE 3 4 1008.0 - 0.0 - - - - - - -
17/06:00am 13.6 SSW 3 4 1007.7 - 0.0 - - - - - - -
17/05:30am 14.4 WSW 4 5 1007.5 - 0.0 - - - - - - -
17/05:00am 14.5 WSW 4 5 1007.5 - 0.0 - Partly cloudy - - - - -
17/04:30am 15.1 NW 7 8 1007.7 - 0.0 - - - - - - -
17/04:00am 15.0 NW 8 10 1007.6 - 0.0 - - - - - - -
17/03:30am 15.2 NNW 10 13 1007.6 - 0.0 - - 10 - - - -
17/03:00am 15.3 NNW 10 13 1007.8 - 0.0 - - 10 - - - -
17/02:30am 15.3 NW 9 12 1007.9 - 0.0 - - 10 - - - -
17/02:00am 15.2 NNW 10 12 1008.2 - 0.0 - - 10 - - - -
17/01:30am 14.7 WNW 3 4 1008.2 - 0.0 - - 10 - - - -
17/01:00am 15.2 WNW 7 9 1008.5 - 0.0 - - 10 - - - -
17/12:30am 15.4 WNW 8 9 1008.7 - 0.0 - - 10 - - - -
17/12:00am 15.3 WNW 9 13 1009.0 - 0.0 - Mostly cloudy 10 - - - -
 
Date/Time
EDT
Temp
°C
Wind Pressure Rain since
9am
mm
Weather Cloud Vis
km
Sea
Height
m
Swell
Dir  Spd
kts
Gust
kts
hPa Trend Height
m
Period
s
Dir
16/11:30pm 15.4 WNW 11 14 1009.2 - 0.0 - - 10 - - - -
16/11:00pm 15.6 WNW 11 15 1009.6 - 0.0 - - 10 - - - -
16/10:30pm 15.7 WNW 12 15 1010.1 - 0.0 - - 10 - - - -
16/10:00pm 15.8 WNW 14 18 1009.8 - 0.0 - - 10 - - - -
16/09:30pm 15.9 NW 14 17 1010.0 - 0.0 - - 10 - - - -
16/09:00pm 15.9 WNW 13 16 1009.7 - 0.0 - Mostly cloudy 10 - - - -
16/08:30pm 15.8 NW 14 19 1009.8 - 0.0 - - 10 - - - -
16/08:00pm 16.1 NW 15 19 1009.8 - 0.0 - - 10 - - - -
16/07:30pm 16.5 NW 15 19 1009.6 - 0.0 - - 10 - - - -
16/07:00pm 16.9 NW 17 21 1009.6 - 0.0 - - 10 - - - -
16/06:30pm 17.1 NW 18 22 1009.6 - 0.0 - - 10 - - - -
16/06:00pm 17.3 NW 18 23 1009.7 - 0.0 - - 10 - - - -
16/05:30pm 17.6 NW 14 18 1010.1 - 0.0 - - 10 - - - -
16/05:00pm 17.6 NW 15 19 1010.6 - 0.0 - - 10 - - - -
16/04:30pm 18.1 NW 18 24 1010.7 - 0.0 - - 10 - - - -
16/04:00pm 17.8 NW 20 25 1010.9 - 0.0 - - 10 - - - -
16/03:30pm 18.2 NW 20 24 1011.1 - 0.0 - - 10 - - - -
16/03:00pm 18.2 NW 21 27 1011.2 - 0.0 - Mostly clear 10 - - - -
16/02:30pm 18.0 NW 19 24 1011.3 - 0.0 - - 10 - - - -
16/02:00pm 18.1 NW 20 26 1011.6 - 0.0 - - 10 - - - -
16/01:30pm 18.1 NW 18 23 1011.8 - 0.0 - - 10 - - - -
16/01:00pm 18.5 NW 20 26 1012.2 - 0.0 - - 10 - - - -
16/12:30pm 17.7 NW 18 23 1012.5 - 0.0 - - 10 - - - -
16/12:00pm 17.6 NW 18 22 1012.7 - 0.0 - - 10 - - - -
16/11:30am 16.8 NW 17 22 1013.0 - 0.0 - - 10 - - - -
16/11:00am 17.1 NW 17 23 1013.3 - 0.0 - - 10 - - - -
16/10:30am 16.4 NW 19 23 1013.7 - 0.0 - - 10 - - - -
16/10:00am 16.5 NW 18 21 1014.0 - 0.0 - - 10 - - - -
16/09:30am 15.9 NW 18 22 1014.0 - 0.0 - - 10 - - - -
16/09:00am 15.6 WNW 17 21 1014.0 - 0.0 - - 10 - - - -
16/08:30am 14.9 WNW 16 20 1014.1 - 0.0 - - 10 - - - -
16/08:00am 14.3 WNW 15 19 1013.7 - 0.0 - - 10 - - - -
16/07:30am 14.2 WNW 15 18 1013.6 - 0.0 - - 10 - - - -
16/07:00am 13.6 WNW 16 19 1013.5 - 0.0 - - 10 - - - -
16/06:30am 13.4 WNW 17 21 1013.2 - 0.0 - - 10 - - - -
16/06:00am 13.3 WNW 17 21 1013.0 - 0.0 - - 10 - - - -
16/05:30am 13.3 WNW 16 21 1012.8 - 0.0 - - 10 - - - -
16/05:00am 13.2 WNW 11 14 1012.6 - 0.0 - - 10 - - - -
16/04:30am 13.1 WNW 11 15 1012.5 - 0.0 - - 10 - - - -
16/04:00am 13.0 WNW 12 14 1012.7 - 0.0 - Partly cloudy 10 - - - -
16/03:30am 12.7 W 10 13 1012.9 - 0.0 - - 10 - - - -
16/03:00am 13.3 WNW 15 19 1013.1 - 0.0 - - 10 - - - -
16/02:30am 13.5 WNW 15 18 1013.2 - 0.0 - - 10 - - - -
16/02:00am 13.8 WNW 15 18 1013.4 - 0.0 - - 10 - - - -
16/01:30am 13.5 WNW 12 15 1013.9 - 0.0 - Partly cloudy 10 - - - -
16/01:00am 13.3 W 11 16 1014.2 - 0.0 - Partly cloudy 10 - - - -
16/12:30am 13.3 W 11 17 1014.4 - 0.0 - - 10 - - - -
16/12:00am 12.5 W 6 8 1014.7 - 0.0 - Mostly clear 10 - - - -
 
Date/Time
EDT
Temp
°C
Wind Pressure Rain since
9am
mm
Weather Cloud Vis
km
Sea
Height
m
Swell
Dir  Spd
kts
Gust
kts
hPa Trend Height
m
Period
s
Dir
15/11:30pm 12.8 W 11 13 1014.7 - 0.0 - - 10 - - - -
15/11:00pm 13.1 W 11 14 1014.6 - 0.0 - - 10 - - - -
15/10:30pm 13.7 W 11 16 1014.8 - 0.0 - - 10 - - - -
15/10:00pm 13.5 W 7 8 1014.9 - 0.0 - - 10 - - - -
15/09:30pm 14.3 WSW 10 14 1014.6 - 0.0 - - 10 - - - -
15/09:00pm 15.0 W 11 16 1014.5 - 0.0 - - 10 - - - -
15/08:30pm 15.8 W 12 16 1014.0 - 0.0 - - 10 - - - -
15/08:00pm 17.2 W 13 17 1013.6 - 0.0 - - 10 - - - -
15/07:30pm 18.2 W 16 19 1013.2 - 0.0 - - 10 - - - -
15/07:00pm 19.2 W 15 20 1013.1 - 0.0 - - 10 - - - -
15/06:30pm 19.7 W 15 20 1013.0 - 0.0 - - 10 - - - -
15/06:00pm 20.2 W 15 20 1013.0 - 0.0 - - 10 - - - -
15/05:30pm 20.3 W 17 21 1013.3 - 0.0 - - 10 - - - -
15/05:00pm 20.2 WNW 18 24 1013.3 - 0.0 - - 10 - - - -
15/04:30pm 20.3 W 18 25 1013.7 - 0.0 - - 10 - - - -
15/04:16pm 20.5 W 18 29 1013.5 - 0.0 - - 10 - - - -
15/04:00pm 20.2 W 19 25 1013.7 - 0.0 - - 10 - - - -
15/03:30pm 20.4 W 18 24 1013.6 - 0.0 - - 10 - - - -
15/03:00pm 19.9 W 16 23 1014.0 - 0.0 - - 10 - - - -
15/02:30pm 20.3 W 16 23 1014.1 - 0.0 - - 10 - - - -
15/02:00pm 19.6 W 16 22 1014.4 - 0.0 - Partly cloudy 10 - - - -
15/01:30pm 19.2 WNW 15 20 1014.4 - 0.0 - Partly cloudy 10 - - - -
15/01:00pm 18.6 W 14 24 1014.8 - 0.0 - Partly cloudy 10 - - - -
15/12:30pm 18.7 W 16 21 1014.8 - 0.0 - Partly cloudy 10 - - - -
15/12:00pm 17.8 WNW 18 25 1014.7 - 0.0 - Partly cloudy 10 - - - -
15/11:30am 17.9 WNW 16 23 1014.9 - 0.0 - Partly cloudy 10 - - - -
15/11:00am 16.3 WNW 14 18 1015.0 - 0.0 - Partly cloudy 10 - - - -
15/10:30am 16.8 WNW 13 20 1014.9 - 0.0 - Partly cloudy 10 - - - -
15/10:00am 16.5 W 10 14 1014.8 - 0.0 - Partly cloudy 10 - - - -
15/09:30am 15.8 WNW 11 15 1014.9 - 0.0 - Partly cloudy 10 - - - -
15/09:00am 15.3 WNW 11 15 1014.8 - 0.0 - Mostly clear 10 - - - -
15/08:30am 14.5 WNW 11 13 1014.6 - 0.0 - - 10 - - - -
15/08:00am 13.5 WNW 10 13 1014.3 - 0.0 - - 10 - - - -
15/07:30am 12.9 W 9 11 1013.9 - 0.0 - - 10 - - - -
15/07:00am 11.2 W 4 6 1013.6 - 0.0 - - 10 - - - -
15/06:30am 10.2 W 6 8 1013.2 - 0.0 - Partly cloudy 10 - - - -
15/06:00am 9.8 W 8 9 1012.8 - 0.0 - Partly cloudy 10 - - - -
15/05:30am 10.2 W 7 8 1012.5 - 0.0 - Partly cloudy 10 - - - -
15/05:00am 9.9 W 8 10 1012.1 - 0.0 - - 10 - - - -
15/04:30am 9.6 W 7 8 1011.7 - 0.0 - - 10 - - - -

Other Formats:

Comma delimited format used in spreadsheet applications
http://www.bom.gov.au/fwo/IDV60701/IDV60701.95960.axf

JavaScript Object Notation format (JSON) in row-major order
http://www.bom.gov.au/fwo/IDV60701/IDV60701.95960.json